sensor_id;sensor_type;location;lat;lon;timestamp;pressure;altitude;pressure_sealevel;temperature;humidity
16094;BME280;8151;47.824;12.092;2022-10-16T00:01:28;96329.38;;;16.02;85.54
16094;BME280;8151;47.824;12.092;2022-10-16T00:03:59;96331.44;;;16.00;85.62
16094;BME280;8151;47.824;12.092;2022-10-16T00:06:30;96343.94;;;15.99;85.52
16094;BME280;8151;47.824;12.092;2022-10-16T00:08:59;96336.16;;;15.98;85.57
16094;BME280;8151;47.824;12.092;2022-10-16T00:11:29;96334.69;;;15.95;85.57
16094;BME280;8151;47.824;12.092;2022-10-16T00:14:01;96336.75;;;15.93;85.64
16094;BME280;8151;47.824;12.092;2022-10-16T00:16:30;96342.06;;;15.93;85.61
16094;BME280;8151;47.824;12.092;2022-10-16T00:18:58;96344.94;;;15.91;85.55
16094;BME280;8151;47.824;12.092;2022-10-16T00:21:29;96350.28;;;15.91;85.82
16094;BME280;8151;47.824;12.092;2022-10-16T00:24:00;96356.03;;;15.88;85.58
16094;BME280;8151;47.824;12.092;2022-10-16T00:26:30;96351.09;;;15.85;85.90
16094;BME280;8151;47.824;12.092;2022-10-16T00:29:00;96350.47;;;15.83;85.87
16094;BME280;8151;47.824;12.092;2022-10-16T00:31:29;96357.22;;;15.79;86.02
16094;BME280;8151;47.824;12.092;2022-10-16T00:33:57;96355.78;;;15.77;85.98
16094;BME280;8151;47.824;12.092;2022-10-16T00:36:30;96346.13;;;15.75;86.13
16094;BME280;8151;47.824;12.092;2022-10-16T00:38:59;96348.19;;;15.73;86.06
16094;BME280;8151;47.824;12.092;2022-10-16T00:41:30;96353.06;;;15.70;85.89
16094;BME280;8151;47.824;12.092;2022-10-16T00:44:00;96352.25;;;15.69;86.07
16094;BME280;8151;47.824;12.092;2022-10-16T00:46:37;96356.78;;;15.69;86.16
16094;BME280;8151;47.824;12.092;2022-10-16T00:49:08;96359.03;;;15.72;85.90
16094;BME280;8151;47.824;12.092;2022-10-16T00:51:40;96358.19;;;15.71;85.90
16094;BME280;8151;47.824;12.092;2022-10-16T00:54:11;96359.03;;;15.72;86.04
16094;BME280;8151;47.824;12.092;2022-10-16T00:56:41;96361.69;;;15.72;85.84
16094;BME280;8151;47.824;12.092;2022-10-16T00:59:15;96371.13;;;15.68;85.95
16094;BME280;8151;47.824;12.092;2022-10-16T01:01:44;96375.22;;;15.64;85.89
16094;BME280;8151;47.824;12.092;2022-10-16T01:04:12;96371.50;;;15.58;86.23
16094;BME280;8151;47.824;12.092;2022-10-16T01:06:47;96369.00;;;15.56;86.14
16094;BME280;8151;47.824;12.092;2022-10-16T01:09:21;96362.88;;;15.56;86.19
16094;BME280;8151;47.824;12.092;2022-10-16T01:11:58;96367.38;;;15.55;86.16
16094;BME280;8151;47.824;12.092;2022-10-16T01:14:35;96363.91;;;15.55;86.03
16094;BME280;8151;47.824;12.092;2022-10-16T01:17:10;96363.69;;;15.56;85.98
16094;BME280;8151;47.824;12.092;2022-10-16T01:20:01;96367.00;;;15.59;85.82
16094;BME280;8151;47.824;12.092;2022-10-16T01:22:39;96368.00;;;15.58;85.89
16094;BME280;8151;47.824;12.092;2022-10-16T01:25:16;96366.16;;;15.58;86.21
16094;BME280;8151;47.824;12.092;2022-10-16T01:27:48;96372.34;;;15.59;86.19
16094;BME280;8151;47.824;12.092;2022-10-16T01:30:21;96369.00;;;15.56;85.99
16094;BME280;8151;47.824;12.092;2022-10-16T01:32:54;96362.06;;;15.55;86.06
16094;BME280;8151;47.824;12.092;2022-10-16T01:35:27;96370.25;;;15.54;85.92
16094;BME280;8151;47.824;12.092;2022-10-16T01:38:00;96350.16;;;15.51;86.06
16094;BME280;8151;47.824;12.092;2022-10-16T01:40:32;96360.81;;;15.51;85.86
16094;BME280;8151;47.824;12.092;2022-10-16T01:43:05;96361.00;;;15.50;85.73
16094;BME280;8151;47.824;12.092;2022-10-16T01:45:36;96365.53;;;15.49;85.86
16094;BME280;8151;47.824;12.092;2022-10-16T01:48:06;96360.56;;;15.46;86.01
16094;BME280;8151;47.824;12.092;2022-10-16T01:50:38;96367.94;;;15.44;85.93
16094;BME280;8151;47.824;12.092;2022-10-16T01:53:11;96365.69;;;15.41;86.01
16094;BME280;8151;47.824;12.092;2022-10-16T01:55:44;96371.41;;;15.38;86.20
16094;BME280;8151;47.824;12.092;2022-10-16T01:58:15;96367.31;;;15.35;86.20
16094;BME280;8151;47.824;12.092;2022-10-16T02:00:46;96369.34;;;15.33;85.99
16094;BME280;8151;47.824;12.092;2022-10-16T02:03:17;96375.06;;;15.30;86.22
16094;BME280;8151;47.824;12.092;2022-10-16T02:05:49;96370.75;;;15.29;85.97
16094;BME280;8151;47.824;12.092;2022-10-16T02:08:20;96377.94;;;15.29;86.01
16094;BME280;8151;47.824;12.092;2022-10-16T02:10:49;96389.63;;;15.28;86.12
16094;BME280;8151;47.824;12.092;2022-10-16T02:13:22;96378.53;;;15.24;86.10
16094;BME280;8151;47.824;12.092;2022-10-16T02:15:51;96378.72;;;15.23;86.35
16094;BME280;8151;47.824;12.092;2022-10-16T02:18:20;96382.00;;;15.25;86.21
16094;BME280;8151;47.824;12.092;2022-10-16T02:20:53;96381.38;;;15.23;86.00
16094;BME280;8151;47.824;12.092;2022-10-16T02:23:29;96380.75;;;15.21;85.97
16094;BME280;8151;47.824;12.092;2022-10-16T02:26:04;96375.81;;;15.18;86.20
16094;BME280;8151;47.824;12.092;2022-10-16T02:28:38;96384.03;;;15.16;86.01
16094;BME280;8151;47.824;12.092;2022-10-16T02:31:11;96386.88;;;15.14;86.17
16094;BME280;8151;47.824;12.092;2022-10-16T02:33:42;96375.59;;;15.12;86.22
16094;BME280;8151;47.824;12.092;2022-10-16T02:36:12;96381.13;;;15.11;86.34
16094;BME280;8151;47.824;12.092;2022-10-16T02:38:41;96381.94;;;15.11;86.00
16094;BME280;8151;47.824;12.092;2022-10-16T02:41:09;96387.25;;;15.11;86.28
16094;BME280;8151;47.824;12.092;2022-10-16T02:43:39;96383.59;;;15.12;86.08
16094;BME280;8151;47.824;12.092;2022-10-16T02:46:08;96384.59;;;15.11;86.30
16094;BME280;8151;47.824;12.092;2022-10-16T02:48:36;96390.56;;;15.13;85.79
16094;BME280;8151;47.824;12.092;2022-10-16T02:51:06;96381.56;;;15.14;85.95
16094;BME280;8151;47.824;12.092;2022-10-16T02:53:34;96383.38;;;15.14;85.88
16094;BME280;8151;47.824;12.092;2022-10-16T02:56:03;96384.22;;;15.14;85.91
16094;BME280;8151;47.824;12.092;2022-10-16T02:58:31;96387.69;;;15.15;85.77
16094;BME280;8151;47.824;12.092;2022-10-16T03:01:01;96386.88;;;15.14;85.97
16094;BME280;8151;47.824;12.092;2022-10-16T03:03:29;96392.41;;;15.13;86.12
16094;BME280;8151;47.824;12.092;2022-10-16T03:05:58;96393.41;;;15.12;86.27
16094;BME280;8151;47.824;12.092;2022-10-16T03:08:26;96387.25;;;15.11;85.91
16094;BME280;8151;47.824;12.092;2022-10-16T03:10:55;96397.09;;;15.11;85.92
16094;BME280;8151;47.824;12.092;2022-10-16T03:13:23;96397.94;;;15.11;86.05
16094;BME280;8151;47.824;12.092;2022-10-16T03:15:51;96390.97;;;15.10;85.96
16094;BME280;8151;47.824;12.092;2022-10-16T03:18:21;96395.66;;;15.08;85.98
16094;BME280;8151;47.824;12.092;2022-10-16T03:20:49;96398.13;;;15.10;85.98
16094;BME280;8151;47.824;12.092;2022-10-16T03:23:18;96406.31;;;15.08;86.11
16094;BME280;8151;47.824;12.092;2022-10-16T03:25:46;96394.81;;;15.08;85.91
16094;BME280;8151;47.824;12.092;2022-10-16T03:28:15;96399.34;;;15.07;85.97
16094;BME280;8151;47.824;12.092;2022-10-16T03:30:43;96396.06;;;15.05;85.76
16094;BME280;8151;47.824;12.092;2022-10-16T03:33:12;96397.72;;;15.06;85.67
16094;BME280;8151;47.824;12.092;2022-10-16T03:35:41;96393.38;;;15.05;85.61
16094;BME280;8151;47.824;12.092;2022-10-16T03:38:10;96398.09;;;15.03;85.79
16094;BME280;8151;47.824;12.092;2022-10-16T03:40:38;96398.28;;;15.02;85.51
16094;BME280;8151;47.824;12.092;2022-10-16T03:43:06;96396.03;;;14.99;85.97
16094;BME280;8151;47.824;12.092;2022-10-16T03:45:35;96397.22;;;14.96;85.73
16094;BME280;8151;47.824;12.092;2022-10-16T03:48:03;96391.44;;;14.92;85.51
16094;BME280;8151;47.824;12.092;2022-10-16T03:50:32;96382.81;;;14.90;85.59
16094;BME280;8151;47.824;12.092;2022-10-16T03:53:02;96390.81;;;14.90;85.74
16094;BME280;8151;47.824;12.092;2022-10-16T03:55:30;96389.38;;;14.88;85.58
16094;BME280;8151;47.824;12.092;2022-10-16T03:57:58;96383.63;;;14.84;85.75
16094;BME280;8151;47.824;12.092;2022-10-16T04:00:27;96390.16;;;14.82;85.61
16094;BME280;8151;47.824;12.092;2022-10-16T04:02:55;96395.69;;;14.80;85.62
16094;BME280;8151;47.824;12.092;2022-10-16T04:05:24;96401.38;;;14.77;85.44
16094;BME280;8151;47.824;12.092;2022-10-16T04:07:52;96401.59;;;14.75;85.72
16094;BME280;8151;47.824;12.092;2022-10-16T04:10:23;96400.97;;;14.73;85.55
16094;BME280;8151;47.824;12.092;2022-10-16T04:12:51;96411.41;;;14.75;85.57
16094;BME280;8151;47.824;12.092;2022-10-16T04:15:22;96400.97;;;14.73;85.75
16094;BME280;8151;47.824;12.092;2022-10-16T04:17:51;96400.97;;;14.73;85.38
16094;BME280;8151;47.824;12.092;2022-10-16T04:20:20;96409.97;;;14.72;85.57
16094;BME280;8151;47.824;12.092;2022-10-16T04:22:48;96408.94;;;14.73;85.48
16094;BME280;8151;47.824;12.092;2022-10-16T04:25:16;96415.28;;;14.72;85.60
16094;BME280;8151;47.824;12.092;2022-10-16T04:27:46;96409.31;;;14.70;85.37
16094;BME280;8151;47.824;12.092;2022-10-16T04:30:14;96409.50;;;14.69;85.46
16094;BME280;8151;47.824;12.092;2022-10-16T04:32:43;96412.38;;;14.67;85.63
16094;BME280;8151;47.824;12.092;2022-10-16T04:35:11;96415.25;;;14.66;85.50
16094;BME280;8151;47.824;12.092;2022-10-16T04:37:39;96411.72;;;14.65;85.54
16094;BME280;8151;47.824;12.092;2022-10-16T04:40:08;96425.25;;;14.64;85.52
16094;BME280;8151;47.824;12.092;2022-10-16T04:42:37;96423.78;;;14.61;85.85
16094;BME280;8151;47.824;12.092;2022-10-16T04:45:08;96436.28;;;14.61;85.60
16094;BME280;8151;47.824;12.092;2022-10-16T04:47:42;96427.50;;;14.60;85.42
16094;BME280;8151;47.824;12.092;2022-10-16T04:50:11;96428.13;;;14.62;85.49
16094;BME280;8151;47.824;12.092;2022-10-16T04:52:39;96427.28;;;14.62;85.47
16094;BME280;8151;47.824;12.092;2022-10-16T04:55:08;96429.94;;;14.62;85.34
16094;BME280;8151;47.824;12.092;2022-10-16T04:57:36;96426.47;;;14.61;85.34
16094;BME280;8151;47.824;12.092;2022-10-16T05:00:07;96425.63;;;14.61;85.35
16094;BME280;8151;47.824;12.092;2022-10-16T05:02:36;96429.31;;;14.60;85.32
16094;BME280;8151;47.824;12.092;2022-10-16T05:05:05;96411.88;;;14.57;85.49
16094;BME280;8151;47.824;12.092;2022-10-16T05:07:33;96416.53;;;14.55;85.39
16094;BME280;8151;47.824;12.092;2022-10-16T05:10:02;96422.06;;;14.53;85.56
16094;BME280;8151;47.824;12.092;2022-10-16T05:12:31;96416.91;;;14.52;85.60
16094;BME280;8151;47.824;12.092;2022-10-16T05:14:59;96424.09;;;14.51;85.31
16094;BME280;8151;47.824;12.092;2022-10-16T05:17:29;96417.75;;;14.52;85.57
16094;BME280;8151;47.824;12.092;2022-10-16T05:19:57;96410.78;;;14.51;85.22
16094;BME280;8151;47.824;12.092;2022-10-16T05:22:26;96414.47;;;14.50;85.35
16094;BME280;8151;47.824;12.092;2022-10-16T05:24:54;96415.09;;;14.52;85.46
16094;BME280;8151;47.824;12.092;2022-10-16T05:27:23;96421.25;;;14.53;85.33
16094;BME280;8151;47.824;12.092;2022-10-16T05:29:52;96426.38;;;14.54;85.20
16094;BME280;8151;47.824;12.092;2022-10-16T05:32:20;96417.34;;;14.55;85.25
16094;BME280;8151;47.824;12.092;2022-10-16T05:34:50;96407.56;;;14.56;85.50
16094;BME280;8151;47.824;12.092;2022-10-16T05:37:19;96421.31;;;14.60;85.05
16094;BME280;8151;47.824;12.092;2022-10-16T05:39:47;96420.13;;;14.62;85.31
16094;BME280;8151;47.824;12.092;2022-10-16T05:42:15;96424.88;;;14.67;85.20
16094;BME280;8151;47.824;12.092;2022-10-16T05:44:44;96419.97;;;14.70;84.82
16094;BME280;8151;47.824;12.092;2022-10-16T05:47:13;96417.75;;;14.74;84.60
16094;BME280;8151;47.824;12.092;2022-10-16T05:49:42;96414.91;;;14.75;84.96
16094;BME280;8151;47.824;12.092;2022-10-16T05:52:11;96416.34;;;14.78;84.44
16094;BME280;8151;47.824;12.092;2022-10-16T05:54:40;96405.50;;;14.80;84.37
16094;BME280;8151;47.824;12.092;2022-10-16T05:57:08;96409.19;;;14.79;84.60
16094;BME280;8151;47.824;12.092;2022-10-16T05:59:36;96415.97;;;14.81;84.48
16094;BME280;8151;47.824;12.092;2022-10-16T06:02:07;96410.25;;;14.84;84.52
16094;BME280;8151;47.824;12.092;2022-10-16T06:04:36;96424.00;;;14.88;84.52
16094;BME280;8151;47.824;12.092;2022-10-16T06:07:05;96411.31;;;14.90;84.40
16094;BME280;8151;47.824;12.092;2022-10-16T06:09:35;96430.59;;;14.92;84.47
16094;BME280;8151;47.824;12.092;2022-10-16T06:12:03;96434.91;;;14.93;84.26
16094;BME280;8151;47.824;12.092;2022-10-16T06:14:32;96442.06;;;14.92;84.41
16094;BME280;8151;47.824;12.092;2022-10-16T06:17:00;96444.94;;;14.91;84.29
16094;BME280;8151;47.824;12.092;2022-10-16T06:19:29;96444.94;;;14.91;84.39
16094;BME280;8151;47.824;12.092;2022-10-16T06:21:58;96447.59;;;14.91;84.34
16094;BME280;8151;47.824;12.092;2022-10-16T06:24:27;96437.59;;;14.93;84.34
16094;BME280;8151;47.824;12.092;2022-10-16T06:26:57;96447.84;;;14.96;83.98
16094;BME280;8151;47.824;12.092;2022-10-16T06:29:25;96457.69;;;14.95;84.23
16094;BME280;8151;47.824;12.092;2022-10-16T06:31:54;96451.91;;;14.92;84.35
16094;BME280;8151;47.824;12.092;2022-10-16T06:34:22;96452.94;;;14.91;84.33
16094;BME280;8151;47.824;12.092;2022-10-16T06:36:51;96454.97;;;14.89;84.38
16094;BME280;8151;47.824;12.092;2022-10-16T06:39:19;96458.63;;;14.88;84.17
16094;BME280;8151;47.824;12.092;2022-10-16T06:41:47;96472.78;;;14.88;84.12
16094;BME280;8151;47.824;12.092;2022-10-16T06:44:18;96470.75;;;14.90;84.18
16094;BME280;8151;47.824;12.092;2022-10-16T06:46:47;96459.28;;;14.90;84.14
16094;BME280;8151;47.824;12.092;2022-10-16T06:49:15;96450.28;;;14.91;83.88
16094;BME280;8151;47.824;12.092;2022-10-16T06:51:48;96473.03;;;14.93;83.81
16094;BME280;8151;47.824;12.092;2022-10-16T06:54:17;96471.44;;;14.99;83.85
16094;BME280;8151;47.824;12.092;2022-10-16T06:56:45;96480.50;;;15.05;83.61
16094;BME280;8151;47.824;12.092;2022-10-16T06:59:13;96486.06;;;15.10;83.68
16094;BME280;8151;47.824;12.092;2022-10-16T07:01:43;96491.81;;;15.13;83.38
16094;BME280;8151;47.824;12.092;2022-10-16T07:04:11;96482.81;;;15.14;83.49
16094;BME280;8151;47.824;12.092;2022-10-16T07:06:40;96488.16;;;15.14;83.38
16094;BME280;8151;47.824;12.092;2022-10-16T07:09:09;96488.16;;;15.14;83.56
16094;BME280;8151;47.824;12.092;2022-10-16T07:11:39;96499.63;;;15.15;83.46
16094;BME280;8151;47.824;12.092;2022-10-16T07:14:15;96508.84;;;15.12;83.34
16094;BME280;8151;47.824;12.092;2022-10-16T07:16:45;96508.22;;;15.10;83.27
16094;BME280;8151;47.824;12.092;2022-10-16T07:19:14;96504.94;;;15.08;83.59
16094;BME280;8151;47.824;12.092;2022-10-16T07:21:45;96504.94;;;15.08;83.37
16094;BME280;8151;47.824;12.092;2022-10-16T07:24:15;96495.28;;;15.07;83.55
16094;BME280;8151;47.824;12.092;2022-10-16T07:26:45;96516.84;;;15.12;83.46
16094;BME280;8151;47.824;12.092;2022-10-16T07:29:15;96506.22;;;15.19;83.36
16094;BME280;8151;47.824;12.092;2022-10-16T07:31:46;96519.84;;;15.31;83.18
16094;BME280;8151;47.824;12.092;2022-10-16T07:34:16;96517.88;;;15.40;82.88
16094;BME280;8151;47.824;12.092;2022-10-16T07:36:47;96513.19;;;15.48;82.98
16094;BME280;8151;47.824;12.092;2022-10-16T07:39:16;96521.69;;;15.59;82.63
16094;BME280;8151;47.824;12.092;2022-10-16T07:41:44;96531.16;;;15.68;82.39
16094;BME280;8151;47.824;12.092;2022-10-16T07:44:12;96537.19;;;15.77;82.08
16094;BME280;8151;47.824;12.092;2022-10-16T07:46:41;96529.22;;;15.83;82.08
16094;BME280;8151;47.824;12.092;2022-10-16T07:49:11;96533.38;;;15.92;82.00
16094;BME280;8151;47.824;12.092;2022-10-16T07:51:39;96536.91;;;16.00;82.04
16094;BME280;8151;47.824;12.092;2022-10-16T07:54:08;96538.78;;;16.06;81.79
16094;BME280;8151;47.824;12.092;2022-10-16T07:56:37;96539.66;;;16.13;81.62
16094;BME280;8151;47.824;12.092;2022-10-16T07:59:10;96537.81;;;16.20;81.60
16094;BME280;8151;47.824;12.092;2022-10-16T08:01:38;96541.53;;;16.26;81.44
16094;BME280;8151;47.824;12.092;2022-10-16T08:04:07;96539.72;;;16.33;81.47
16094;BME280;8151;47.824;12.092;2022-10-16T08:06:39;96538.09;;;16.39;81.31
16094;BME280;8151;47.824;12.092;2022-10-16T08:09:08;96540.16;;;16.43;81.33
16094;BME280;8151;47.824;12.092;2022-10-16T08:11:37;96538.72;;;16.47;81.15
16094;BME280;8151;47.824;12.092;2022-10-16T08:14:05;96545.13;;;16.53;81.04
16094;BME280;8151;47.824;12.092;2022-10-16T08:16:33;96541.44;;;16.61;80.99
16094;BME280;8151;47.824;12.092;2022-10-16T08:19:02;96547.44;;;16.69;80.74
16094;BME280;8151;47.824;12.092;2022-10-16T08:21:31;96542.28;;;16.74;80.57
16094;BME280;8151;47.824;12.092;2022-10-16T08:24:00;96549.31;;;16.82;80.61
16094;BME280;8151;47.824;12.092;2022-10-16T08:26:29;96559.19;;;16.88;80.38
16094;BME280;8151;47.824;12.092;2022-10-16T08:28:57;96568.25;;;16.94;80.31
16094;BME280;8151;47.824;12.092;2022-10-16T08:31:26;96572.81;;;17.00;80.03
16094;BME280;8151;47.824;12.092;2022-10-16T08:33:54;96562.91;;;17.07;79.87
16094;BME280;8151;47.824;12.092;2022-10-16T08:36:23;96578.75;;;17.16;79.75
16094;BME280;8151;47.824;12.092;2022-10-16T08:38:51;96572.81;;;17.20;79.39
16094;BME280;8151;47.824;12.092;2022-10-16T08:41:33;96567.88;;;17.24;79.15
16094;BME280;8151;47.824;12.092;2022-10-16T08:44:36;96577.75;;;17.30;78.85
16094;BME280;8151;47.824;12.092;2022-10-16T08:47:13;96573.25;;;17.37;79.01
16094;BME280;8151;47.824;12.092;2022-10-16T08:49:59;96583.91;;;17.44;78.55
16094;BME280;8151;47.824;12.092;2022-10-16T08:52:30;96582.91;;;17.51;78.69
16094;BME280;8151;47.824;12.092;2022-10-16T08:55:01;96594.63;;;17.57;78.54
16094;BME280;8151;47.824;12.092;2022-10-16T08:57:31;96594.84;;;17.62;78.32
16094;BME280;8151;47.824;12.092;2022-10-16T09:00:05;96587.44;;;17.64;78.23
16094;BME280;8151;47.824;12.092;2022-10-16T09:02:39;96581.44;;;17.69;78.13
16094;BME280;8151;47.824;12.092;2022-10-16T09:05:29;96584.94;;;17.76;77.51
16094;BME280;8151;47.824;12.092;2022-10-16T09:08:09;96583.06;;;17.83;77.70
16094;BME280;8151;47.824;12.092;2022-10-16T09:10:52;96595.22;;;17.93;77.51
16094;BME280;8151;47.824;12.092;2022-10-16T09:13:28;96593.38;;;18.00;77.38
16094;BME280;8151;47.824;12.092;2022-10-16T09:16:04;96607.56;;;18.07;76.96
16094;BME280;8151;47.824;12.092;2022-10-16T09:18:43;96592.94;;;18.09;76.89
16094;BME280;8151;47.824;12.092;2022-10-16T09:21:16;96601.53;;;18.18;76.70
16094;BME280;8151;47.824;12.092;2022-10-16T09:23:46;96607.09;;;18.23;76.46
16094;BME280;8151;47.824;12.092;2022-10-16T09:26:16;96610.19;;;18.27;76.32
16094;BME280;8151;47.824;12.092;2022-10-16T09:28:48;96608.53;;;18.33;76.07
16094;BME280;8151;47.824;12.092;2022-10-16T09:31:19;96604.38;;;18.37;75.96
16094;BME280;8151;47.824;12.092;2022-10-16T09:33:51;96606.22;;;18.43;75.73
16094;BME280;8151;47.824;12.092;2022-10-16T09:36:23;96621.84;;;18.53;75.43
16094;BME280;8151;47.824;12.092;2022-10-16T09:39:03;96623.91;;;18.57;75.09
16094;BME280;8151;47.824;12.092;2022-10-16T09:41:34;96616.22;;;18.61;75.00
16094;BME280;8151;47.824;12.092;2022-10-16T09:44:06;96613.13;;;18.64;74.98
16094;BME280;8151;47.824;12.092;2022-10-16T09:46:44;96625.28;;;18.66;74.89
16094;BME280;8151;47.824;12.092;2022-10-16T09:49:22;96618.25;;;18.72;74.77
16094;BME280;8151;47.824;12.092;2022-10-16T09:52:02;96618.22;;;18.79;75.03
16094;BME280;8151;47.824;12.092;2022-10-16T09:54:30;96627.91;;;18.86;74.84
16094;BME280;8151;47.824;12.092;2022-10-16T09:57:05;96622.28;;;18.95;74.46
16094;BME280;8151;47.824;12.092;2022-10-16T09:59:46;96621.81;;;19.04;74.38
16094;BME280;8151;47.824;12.092;2022-10-16T10:02:15;96616.81;;;19.15;74.51
16094;BME280;8151;47.824;12.092;2022-10-16T10:04:49;96622.75;;;19.23;74.42
16094;BME280;8151;47.824;12.092;2022-10-16T10:07:23;96624.34;;;19.31;73.86
16094;BME280;8151;47.824;12.092;2022-10-16T10:09:53;96616.84;;;19.40;73.81
16094;BME280;8151;47.824;12.092;2022-10-16T10:12:25;96617.16;;;19.50;73.75
16094;BME280;8151;47.824;12.092;2022-10-16T10:14:57;96630.53;;;19.57;73.26
16094;BME280;8151;47.824;12.092;2022-10-16T10:17:27;96630.47;;;19.63;73.07
16094;BME280;8151;47.824;12.092;2022-10-16T10:19:57;96615.16;;;19.71;72.99
16094;BME280;8151;47.824;12.092;2022-10-16T10:22:38;96613.06;;;19.79;72.51
16094;BME280;8151;47.824;12.092;2022-10-16T10:25:39;96602.63;;;19.90;72.14
16094;BME280;8151;47.824;12.092;2022-10-16T10:28:18;96601.28;;;19.99;72.14
16094;BME280;8151;47.824;12.092;2022-10-16T10:30:57;96603.69;;;20.07;71.97
16094;BME280;8151;47.824;12.092;2022-10-16T10:33:34;96606.06;;;20.15;71.64
16094;BME280;8151;47.824;12.092;2022-10-16T10:36:14;96608.69;;;20.22;71.49
16094;BME280;8151;47.824;12.092;2022-10-16T10:38:49;96605.94;;;20.29;71.15
16094;BME280;8151;47.824;12.092;2022-10-16T10:41:32;96608.91;;;20.39;70.95
16094;BME280;8151;47.824;12.092;2022-10-16T10:44:11;96607.72;;;20.53;71.11
16094;BME280;8151;47.824;12.092;2022-10-16T10:46:50;96615.28;;;20.63;70.73
16094;BME280;8151;47.824;12.092;2022-10-16T10:49:28;96598.84;;;20.71;70.48
16094;BME280;8151;47.824;12.092;2022-10-16T10:52:10;96609.06;;;20.81;70.03
16094;BME280;8151;47.824;12.092;2022-10-16T10:54:49;96614.34;;;20.88;69.60
16094;BME280;8151;47.824;12.092;2022-10-16T10:57:22;96614.25;;;20.94;69.29
16094;BME280;8151;47.824;12.092;2022-10-16T11:00:16;96617.69;;;21.01;68.73
16094;BME280;8151;47.824;12.092;2022-10-16T11:02:54;96614.06;;;21.08;69.09
16094;BME280;8151;47.824;12.092;2022-10-16T11:05:38;96607.28;;;21.17;68.58
16094;BME280;8151;47.824;12.092;2022-10-16T11:08:13;96595.97;;;21.27;68.79
16094;BME280;8151;47.824;12.092;2022-10-16T11:10:52;96596.47;;;21.35;68.44
16094;BME280;8151;47.824;12.092;2022-10-16T11:13:31;96595.53;;;21.41;67.92
16094;BME280;8151;47.824;12.092;2022-10-16T11:16:03;96593.59;;;21.49;67.75
16094;BME280;8151;47.824;12.092;2022-10-16T11:18:44;96589.28;;;21.59;67.22
16094;BME280;8151;47.824;12.092;2022-10-16T11:21:19;96585.41;;;21.67;67.35
16094;BME280;8151;47.824;12.092;2022-10-16T11:23:58;96576.44;;;21.73;67.07
16094;BME280;8151;47.824;12.092;2022-10-16T11:26:30;96584.50;;;21.85;66.77
16094;BME280;8151;47.824;12.092;2022-10-16T11:29:01;96580.06;;;21.91;66.50
16094;BME280;8151;47.824;12.092;2022-10-16T11:31:36;96574.53;;;21.97;66.33
16094;BME280;8151;47.824;12.092;2022-10-16T11:34:12;96585.75;;;22.06;66.10
16094;BME280;8151;47.824;12.092;2022-10-16T11:36:50;96581.78;;;22.20;65.90
16094;BME280;8151;47.824;12.092;2022-10-16T11:39:23;96576.28;;;22.27;65.78
16094;BME280;8151;47.824;12.092;2022-10-16T11:41:54;96581.06;;;22.37;65.48
16094;BME280;8151;47.824;12.092;2022-10-16T11:44:41;96577.19;;;22.45;64.50
16094;BME280;8151;47.824;12.092;2022-10-16T11:47:24;96578.94;;;22.51;64.82
16094;BME280;8151;47.824;12.092;2022-10-16T11:50:21;96573.97;;;22.59;64.90
16094;BME280;8151;47.824;12.092;2022-10-16T11:52:55;96567.84;;;22.64;64.47
16094;BME280;8151;47.824;12.092;2022-10-16T11:55:32;96568.53;;;22.71;64.13
16094;BME280;8151;47.824;12.092;2022-10-16T11:58:05;96561.13;;;22.78;63.80
16094;BME280;8151;47.824;12.092;2022-10-16T12:00:40;96559.59;;;22.83;63.35
16094;BME280;8151;47.824;12.092;2022-10-16T12:03:17;96569.97;;;22.91;63.39
16094;BME280;8151;47.824;12.092;2022-10-16T12:05:58;96561.19;;;22.95;63.04
16094;BME280;8151;47.824;12.092;2022-10-16T12:08:30;96564.31;;;23.04;63.06
16094;BME280;8151;47.824;12.092;2022-10-16T12:11:09;96569.66;;;23.16;62.66
16094;BME280;8151;47.824;12.092;2022-10-16T12:13:39;96565.97;;;23.22;62.69
16094;BME280;8151;47.824;12.092;2022-10-16T12:16:27;96568.88;;;23.32;62.31
16094;BME280;8151;47.824;12.092;2022-10-16T12:19:13;96562.81;;;23.42;61.67
16094;BME280;8151;47.824;12.092;2022-10-16T12:21:44;96561.50;;;23.45;62.12
16094;BME280;8151;47.824;12.092;2022-10-16T12:24:22;96561.03;;;23.48;61.35
16094;BME280;8151;47.824;12.092;2022-10-16T12:26:56;96558.72;;;23.56;61.59
16094;BME280;8151;47.824;12.092;2022-10-16T12:29:32;96558.84;;;23.67;61.05
16094;BME280;8151;47.824;12.092;2022-10-16T12:32:04;96554.91;;;23.74;60.63
16094;BME280;8151;47.824;12.092;2022-10-16T12:34:38;96562.34;;;23.79;60.19
16094;BME280;8151;47.824;12.092;2022-10-16T12:37:13;96559.44;;;23.86;59.77
16094;BME280;8151;47.824;12.092;2022-10-16T12:39:43;96560.59;;;23.90;59.52
16094;BME280;8151;47.824;12.092;2022-10-16T12:42:31;96553.28;;;23.90;59.43
16094;BME280;8151;47.824;12.092;2022-10-16T12:45:12;96558.22;;;23.93;59.71
16094;BME280;8151;47.824;12.092;2022-10-16T12:47:49;96561.31;;;24.02;58.92
16094;BME280;8151;47.824;12.092;2022-10-16T12:50:38;96550.31;;;24.09;58.32
16094;BME280;8151;47.824;12.092;2022-10-16T12:53:19;96554.38;;;24.11;58.61
16094;BME280;8151;47.824;12.092;2022-10-16T12:55:54;96551.19;;;24.14;58.41
16094;BME280;8151;47.824;12.092;2022-10-16T12:58:46;96557.25;;;24.22;58.54
16094;BME280;8151;47.824;12.092;2022-10-16T13:01:26;96563.28;;;24.29;58.51
16094;BME280;8151;47.824;12.092;2022-10-16T13:04:32;96565.00;;;24.35;58.10
16094;BME280;8151;47.824;12.092;2022-10-16T13:07:18;96565.84;;;24.41;58.42
16094;BME280;8151;47.824;12.092;2022-10-16T13:09:58;96564.31;;;24.45;58.21
16094;BME280;8151;47.824;12.092;2022-10-16T13:12:49;96562.66;;;24.44;57.39
16094;BME280;8151;47.824;12.092;2022-10-16T13:15:27;96563.22;;;24.46;57.82
16094;BME280;8151;47.824;12.092;2022-10-16T13:18:06;96569.19;;;24.48;57.68
16094;BME280;8151;47.824;12.092;2022-10-16T13:20:51;96573.91;;;24.52;57.45
16094;BME280;8151;47.824;12.092;2022-10-16T13:23:29;96566.91;;;24.56;57.66
16094;BME280;8151;47.824;12.092;2022-10-16T13:26:12;96574.56;;;24.65;56.96
16094;BME280;8151;47.824;12.092;2022-10-16T13:28:45;96568.63;;;24.68;56.91